sensor_id;sensor_type;location;lat;lon;timestamp;pressure;altitude;pressure_sealevel;temperature;humidity
62800;BME280;48842;51.046;13.796;2022-09-28T00:01:41;98649.03;;;13.32;58.62
62800;BME280;48842;51.046;13.796;2022-09-28T00:04:07;98650.72;;;13.33;58.42
62800;BME280;48842;51.046;13.796;2022-09-28T00:06:32;98652.44;;;13.34;58.50
62800;BME280;48842;51.046;13.796;2022-09-28T00:08:58;98648.00;;;13.36;58.28
62800;BME280;48842;51.046;13.796;2022-09-28T00:11:24;98647.16;;;13.35;58.40
62800;BME280;48842;51.046;13.796;2022-09-28T00:13:55;98649.75;;;13.37;58.56
62800;BME280;48842;51.046;13.796;2022-09-28T00:16:24;98647.94;;;13.37;58.45
62800;BME280;48842;51.046;13.796;2022-09-28T00:18:50;98641.84;;;13.37;58.46
62800;BME280;48842;51.046;13.796;2022-09-28T00:21:19;98637.44;;;13.37;58.33
62800;BME280;48842;51.046;13.796;2022-09-28T00:23:45;98635.69;;;13.38;58.23
62800;BME280;48842;51.046;13.796;2022-09-28T00:26:31;98632.19;;;13.37;58.10
62800;BME280;48842;51.046;13.796;2022-09-28T00:28:58;98633.97;;;13.37;58.15
62800;BME280;48842;51.046;13.796;2022-09-28T00:31:25;98626.91;;;13.37;58.09
62800;BME280;48842;51.046;13.796;2022-09-28T00:33:53;98633.06;;;13.38;57.96
62800;BME280;48842;51.046;13.796;2022-09-28T00:36:21;98631.28;;;13.38;57.87
62800;BME280;48842;51.046;13.796;2022-09-28T00:38:46;98623.38;;;13.38;57.68
62800;BME280;48842;51.046;13.796;2022-09-28T00:41:12;98625.09;;;13.39;57.65
62800;BME280;48842;51.046;13.796;2022-09-28T00:43:37;98622.47;;;13.39;57.70
62800;BME280;48842;51.046;13.796;2022-09-28T00:46:07;98620.69;;;13.40;57.67
62800;BME280;48842;51.046;13.796;2022-09-28T00:48:37;98617.16;;;13.41;57.50
62800;BME280;48842;51.046;13.796;2022-09-28T00:51:08;98621.56;;;13.40;57.28
62800;BME280;48842;51.046;13.796;2022-09-28T00:53:37;98611.06;;;13.40;56.96
62800;BME280;48842;51.046;13.796;2022-09-28T00:56:07;98614.59;;;13.39;56.87
62800;BME280;48842;51.046;13.796;2022-09-28T00:58:38;98611.97;;;13.39;57.17
62800;BME280;48842;51.046;13.796;2022-09-28T01:01:05;98614.59;;;13.39;57.30
62800;BME280;48842;51.046;13.796;2022-09-28T01:03:31;98610.22;;;13.38;57.37
62800;BME280;48842;51.046;13.796;2022-09-28T01:06:00;98603.25;;;13.37;57.44
62800;BME280;48842;51.046;13.796;2022-09-28T01:08:27;98600.63;;;13.37;57.73
62800;BME280;48842;51.046;13.796;2022-09-28T01:10:54;98603.31;;;13.36;57.62
62800;BME280;48842;51.046;13.796;2022-09-28T01:13:20;98599.81;;;13.35;57.22
62800;BME280;48842;51.046;13.796;2022-09-28T01:16:12;98597.19;;;13.35;56.74
62800;BME280;48842;51.046;13.796;2022-09-28T01:21:19;98591.03;;;13.36;56.60
62800;BME280;48842;51.046;13.796;2022-09-28T01:24:05;98591.94;;;13.35;56.58
62800;BME280;48842;51.046;13.796;2022-09-28T01:27:01;98585.84;;;13.33;56.54
62800;BME280;48842;51.046;13.796;2022-09-28T01:29:35;98586.75;;;13.32;56.56
62800;BME280;48842;51.046;13.796;2022-09-28T01:34:44;98586.88;;;13.29;56.58
62800;BME280;48842;51.046;13.796;2022-09-28T01:37:13;98587.78;;;13.28;56.57
62800;BME280;48842;51.046;13.796;2022-09-28T01:39:44;98582.56;;;13.26;56.84
62800;BME280;48842;51.046;13.796;2022-09-28T01:42:16;98577.38;;;13.25;56.83
62800;BME280;48842;51.046;13.796;2022-09-28T01:44:46;98577.44;;;13.23;56.84
62800;BME280;48842;51.046;13.796;2022-09-28T01:47:16;98574.84;;;13.22;57.00
62800;BME280;48842;51.046;13.796;2022-09-28T01:49:47;98569.59;;;13.22;57.03
62800;BME280;48842;51.046;13.796;2022-09-28T01:52:23;98572.22;;;13.22;57.02
62800;BME280;48842;51.046;13.796;2022-09-28T01:55:15;98575.81;;;13.19;57.28
62800;BME280;48842;51.046;13.796;2022-09-28T01:58:01;98573.19;;;13.19;57.35
62800;BME280;48842;51.046;13.796;2022-09-28T02:00:28;98573.19;;;13.19;57.46
62800;BME280;48842;51.046;13.796;2022-09-28T02:02:59;98565.34;;;13.18;57.42
62800;BME280;48842;51.046;13.796;2022-09-28T02:05:29;98569.72;;;13.19;57.59
62800;BME280;48842;51.046;13.796;2022-09-28T02:10:46;98576.72;;;13.18;57.89
62800;BME280;48842;51.046;13.796;2022-09-28T02:13:20;98572.41;;;13.17;57.86
62800;BME280;48842;51.046;13.796;2022-09-28T02:16:02;98571.53;;;13.17;57.73
62800;BME280;48842;51.046;13.796;2022-09-28T02:18:28;98566.25;;;13.17;57.71
62800;BME280;48842;51.046;13.796;2022-09-28T02:21:07;98570.63;;;13.18;57.90
62800;BME280;48842;51.046;13.796;2022-09-28T02:23:34;98571.47;;;13.18;58.03
62800;BME280;48842;51.046;13.796;2022-09-28T02:26:05;98566.16;;;13.20;57.97
62800;BME280;48842;51.046;13.796;2022-09-28T02:28:33;98566.09;;;13.21;57.87
62800;BME280;48842;51.046;13.796;2022-09-28T02:30:59;98561.72;;;13.22;57.84
62800;BME280;48842;51.046;13.796;2022-09-28T02:33:37;98566.06;;;13.23;58.07
62800;BME280;48842;51.046;13.796;2022-09-28T02:36:04;98564.22;;;13.25;57.98
62800;BME280;48842;51.046;13.796;2022-09-28T02:38:30;98562.44;;;13.25;58.08
62800;BME280;48842;51.046;13.796;2022-09-28T02:41:08;98563.31;;;13.26;58.14
62800;BME280;48842;51.046;13.796;2022-09-28T02:44:18;98557.13;;;13.27;58.19
62800;BME280;48842;51.046;13.796;2022-09-28T02:47:03;98551.88;;;13.27;58.10
62800;BME280;48842;51.046;13.796;2022-09-28T02:49:39;98551.03;;;13.26;58.16
62800;BME280;48842;51.046;13.796;2022-09-28T02:52:20;98546.63;;;13.27;58.30
62800;BME280;48842;51.046;13.796;2022-09-28T03:00:24;98543.13;;;13.26;58.24
62800;BME280;48842;51.046;13.796;2022-09-28T03:03:08;98531.84;;;13.24;58.36
62800;BME280;48842;51.046;13.796;2022-09-28T03:05:56;98530.94;;;13.24;58.48
62800;BME280;48842;51.046;13.796;2022-09-28T03:08:41;98533.63;;;13.22;58.51
62800;BME280;48842;51.046;13.796;2022-09-28T03:11:15;98534.53;;;13.21;58.30
62800;BME280;48842;51.046;13.796;2022-09-28T03:13:42;98538.06;;;13.22;58.34
62800;BME280;48842;51.046;13.796;2022-09-28T03:16:13;98526.66;;;13.21;58.37
62800;BME280;48842;51.046;13.796;2022-09-28T03:18:38;98523.19;;;13.21;58.44
62800;BME280;48842;51.046;13.796;2022-09-28T03:21:04;98521.47;;;13.20;58.27
62800;BME280;48842;51.046;13.796;2022-09-28T03:23:29;98524.13;;;13.18;58.33
62800;BME280;48842;51.046;13.796;2022-09-28T03:25:55;98518.94;;;13.17;58.32
62800;BME280;48842;51.046;13.796;2022-09-28T03:28:21;98522.50;;;13.16;58.40
62800;BME280;48842;51.046;13.796;2022-09-28T03:30:46;98515.53;;;13.15;58.29
62800;BME280;48842;51.046;13.796;2022-09-28T03:33:11;98513.81;;;13.14;58.48
62800;BME280;48842;51.046;13.796;2022-09-28T03:35:37;98515.59;;;13.13;58.35
62800;BME280;48842;51.046;13.796;2022-09-28T03:38:02;98510.38;;;13.12;58.41
62800;BME280;48842;51.046;13.796;2022-09-28T03:40:27;98517.44;;;13.09;58.32
62800;BME280;48842;51.046;13.796;2022-09-28T03:42:52;98512.19;;;13.09;58.62
62800;BME280;48842;51.046;13.796;2022-09-28T03:45:18;98512.19;;;13.09;58.52
62800;BME280;48842;51.046;13.796;2022-09-28T03:47:46;98525.34;;;13.09;58.70
62800;BME280;48842;51.046;13.796;2022-09-28T03:50:13;98517.38;;;13.11;58.78
62800;BME280;48842;51.046;13.796;2022-09-28T03:52:38;98522.59;;;13.13;58.66
62800;BME280;48842;51.046;13.796;2022-09-28T03:55:04;98529.63;;;13.12;58.63
62800;BME280;48842;51.046;13.796;2022-09-28T03:57:29;98519.97;;;13.13;58.85
62800;BME280;48842;51.046;13.796;2022-09-28T03:59:54;98516.44;;;13.14;58.85
62800;BME280;48842;51.046;13.796;2022-09-28T04:02:20;98512.06;;;13.13;58.88
62800;BME280;48842;51.046;13.796;2022-09-28T04:04:45;98518.22;;;13.13;59.00
62800;BME280;48842;51.046;13.796;2022-09-28T04:07:10;98513.75;;;13.15;59.06
62800;BME280;48842;51.046;13.796;2022-09-28T04:09:35;98509.38;;;13.16;59.32
62800;BME280;48842;51.046;13.796;2022-09-28T04:12:01;98500.53;;;13.17;59.32
62800;BME280;48842;51.046;13.796;2022-09-28T04:14:26;98494.38;;;13.18;59.51
62800;BME280;48842;51.046;13.796;2022-09-28T04:16:51;98487.41;;;13.17;59.40
62800;BME280;48842;51.046;13.796;2022-09-28T04:19:19;98483.00;;;13.17;59.50
62800;BME280;48842;51.046;13.796;2022-09-28T04:21:44;98476.03;;;13.16;59.53
62800;BME280;48842;51.046;13.796;2022-09-28T04:24:09;98488.28;;;13.17;59.68
62800;BME280;48842;51.046;13.796;2022-09-28T04:26:35;98485.72;;;13.16;59.46
62800;BME280;48842;51.046;13.796;2022-09-28T04:29:00;98490.09;;;13.15;59.46
62800;BME280;48842;51.046;13.796;2022-09-28T04:31:47;98486.66;;;13.13;59.46
62800;BME280;48842;51.046;13.796;2022-09-28T04:34:15;98486.66;;;13.13;59.62
62800;BME280;48842;51.046;13.796;2022-09-28T04:36:42;98481.47;;;13.12;59.58
62800;BME280;48842;51.046;13.796;2022-09-28T04:39:07;98477.13;;;13.10;59.65
62800;BME280;48842;51.046;13.796;2022-09-28T04:41:33;98469.34;;;13.07;59.47
62800;BME280;48842;51.046;13.796;2022-09-28T04:43:58;98457.09;;;13.06;59.45
62800;BME280;48842;51.046;13.796;2022-09-28T04:46:23;98452.81;;;13.04;59.44
62800;BME280;48842;51.046;13.796;2022-09-28T04:48:48;98437.09;;;13.02;59.40
62800;BME280;48842;51.046;13.796;2022-09-28T04:51:14;98438.94;;;13.00;59.32
62800;BME280;48842;51.046;13.796;2022-09-28T04:53:39;98427.66;;;12.98;59.25
62800;BME280;48842;51.046;13.796;2022-09-28T04:56:07;98421.56;;;12.96;59.18
62800;BME280;48842;51.046;13.796;2022-09-28T04:58:34;98422.47;;;12.95;59.24
62800;BME280;48842;51.046;13.796;2022-09-28T05:01:03;98412.91;;;12.94;59.13
62800;BME280;48842;51.046;13.796;2022-09-28T05:03:30;98407.66;;;12.94;59.19
62800;BME280;48842;51.046;13.796;2022-09-28T05:05:55;98411.19;;;12.93;59.06
62800;BME280;48842;51.046;13.796;2022-09-28T05:08:20;98406.81;;;12.92;58.99
62800;BME280;48842;51.046;13.796;2022-09-28T05:10:45;98410.38;;;12.91;58.72
62800;BME280;48842;51.046;13.796;2022-09-28T05:13:12;98416.53;;;12.90;58.63
62800;BME280;48842;51.046;13.796;2022-09-28T05:15:39;98413.97;;;12.88;58.55
62800;BME280;48842;51.046;13.796;2022-09-28T05:18:05;98411.34;;;12.88;58.65
62800;BME280;48842;51.046;13.796;2022-09-28T05:20:31;98413.13;;;12.88;58.45
62800;BME280;48842;51.046;13.796;2022-09-28T05:22:57;98411.41;;;12.87;58.52
62800;BME280;48842;51.046;13.796;2022-09-28T05:25:22;98410.59;;;12.85;58.46
62800;BME280;48842;51.046;13.796;2022-09-28T05:27:53;98415.06;;;12.83;58.46
62800;BME280;48842;51.046;13.796;2022-09-28T05:30:19;98407.19;;;12.83;58.64
62800;BME280;48842;51.046;13.796;2022-09-28T05:32:46;98405.50;;;12.80;58.64
62800;BME280;48842;51.046;13.796;2022-09-28T05:35:11;98410.75;;;12.80;58.76
62800;BME280;48842;51.046;13.796;2022-09-28T05:37:37;98409.88;;;12.81;58.59
62800;BME280;48842;51.046;13.796;2022-09-28T05:40:02;98409.03;;;12.81;58.71
62800;BME280;48842;51.046;13.796;2022-09-28T05:42:29;98401.91;;;12.83;58.83
62800;BME280;48842;51.046;13.796;2022-09-28T05:44:54;98407.13;;;12.84;58.86
62800;BME280;48842;51.046;13.796;2022-09-28T05:47:19;98393.13;;;12.84;58.95
62800;BME280;48842;51.046;13.796;2022-09-28T05:49:45;98394.81;;;12.85;58.91
62800;BME280;48842;51.046;13.796;2022-09-28T05:52:10;98391.28;;;12.86;58.97
62800;BME280;48842;51.046;13.796;2022-09-28T05:54:35;98382.44;;;12.88;58.90
62800;BME280;48842;51.046;13.796;2022-09-28T05:57:00;98389.44;;;12.89;58.75
62800;BME280;48842;51.046;13.796;2022-09-28T05:59:25;98380.59;;;12.90;58.95
62800;BME280;48842;51.046;13.796;2022-09-28T06:01:51;98377.00;;;12.93;58.79
62800;BME280;48842;51.046;13.796;2022-09-28T06:04:16;98376.13;;;12.94;58.79
62800;BME280;48842;51.046;13.796;2022-09-28T06:06:41;98367.28;;;12.95;58.80
62800;BME280;48842;51.046;13.796;2022-09-28T06:09:07;98349.72;;;12.97;58.93
62800;BME280;48842;51.046;13.796;2022-09-28T06:11:32;98351.44;;;12.98;58.98
62800;BME280;48842;51.046;13.796;2022-09-28T06:13:57;98340.88;;;13.00;58.80
62800;BME280;48842;51.046;13.796;2022-09-28T06:16:23;98331.97;;;13.02;58.74
62800;BME280;48842;51.046;13.796;2022-09-28T06:18:48;98329.28;;;13.04;58.80
62800;BME280;48842;51.046;13.796;2022-09-28T06:21:13;98333.56;;;13.06;58.70
62800;BME280;48842;51.046;13.796;2022-09-28T06:23:38;98334.41;;;13.08;58.53
62800;BME280;48842;51.046;13.796;2022-09-28T06:26:04;98323.81;;;13.10;58.46
62800;BME280;48842;51.046;13.796;2022-09-28T06:28:29;98324.59;;;13.12;58.58
62800;BME280;48842;51.046;13.796;2022-09-28T06:30:55;98316.66;;;13.14;58.66
62800;BME280;48842;51.046;13.796;2022-09-28T06:33:20;98311.28;;;13.17;58.63
62800;BME280;48842;51.046;13.796;2022-09-28T06:35:46;98312.94;;;13.19;58.55
62800;BME280;48842;51.046;13.796;2022-09-28T06:38:11;98318.06;;;13.22;58.35
62800;BME280;48842;51.046;13.796;2022-09-28T06:40:37;98324.97;;;13.25;58.19
62800;BME280;48842;51.046;13.796;2022-09-28T06:43:05;98334.59;;;13.26;58.25
62800;BME280;48842;51.046;13.796;2022-09-28T06:45:34;98328.31;;;13.28;58.28
62800;BME280;48842;51.046;13.796;2022-09-28T06:48:00;98323.81;;;13.32;58.22
62800;BME280;48842;51.046;13.796;2022-09-28T06:50:28;98317.66;;;13.33;58.18
62800;BME280;48842;51.046;13.796;2022-09-28T06:52:56;98317.63;;;13.35;58.33
62800;BME280;48842;51.046;13.796;2022-09-28T06:55:22;98322.81;;;13.36;57.92
62800;BME280;48842;51.046;13.796;2022-09-28T06:57:58;98334.13;;;13.38;57.94
62800;BME280;48842;51.046;13.796;2022-09-28T07:00:29;98328.72;;;13.41;58.13
62800;BME280;48842;51.046;13.796;2022-09-28T07:02:55;98327.81;;;13.42;57.93
62800;BME280;48842;51.046;13.796;2022-09-28T07:05:21;98328.59;;;13.44;57.96
62800;BME280;48842;51.046;13.796;2022-09-28T07:07:52;98329.41;;;13.47;57.87
62800;BME280;48842;51.046;13.796;2022-09-28T07:10:19;98331.06;;;13.49;58.07
62800;BME280;48842;51.046;13.796;2022-09-28T07:12:46;98328.31;;;13.52;58.04
62800;BME280;48842;51.046;13.796;2022-09-28T07:15:11;98326.53;;;13.53;57.90
62800;BME280;48842;51.046;13.796;2022-09-28T07:17:37;98334.28;;;13.56;57.52
62800;BME280;48842;51.046;13.796;2022-09-28T07:20:02;98328.91;;;13.59;57.53
62800;BME280;48842;51.046;13.796;2022-09-28T07:22:29;98329.72;;;13.61;57.58
62800;BME280;48842;51.046;13.796;2022-09-28T07:24:54;98334.03;;;13.62;57.55
62800;BME280;48842;51.046;13.796;2022-09-28T07:27:19;98345.34;;;13.64;57.54
62800;BME280;48842;51.046;13.796;2022-09-28T07:29:44;98352.31;;;13.65;57.41
62800;BME280;48842;51.046;13.796;2022-09-28T07:32:10;98354.03;;;13.66;57.03
62800;BME280;48842;51.046;13.796;2022-09-28T07:34:35;98354.88;;;13.67;57.19
62800;BME280;48842;51.046;13.796;2022-09-28T07:37:05;98355.75;;;13.67;57.27
62800;BME280;48842;51.046;13.796;2022-09-28T07:39:31;98347.88;;;13.67;57.18
62800;BME280;48842;51.046;13.796;2022-09-28T07:41:56;98344.31;;;13.68;57.30
62800;BME280;48842;51.046;13.796;2022-09-28T07:44:21;98325.91;;;13.68;57.22
62800;BME280;48842;51.046;13.796;2022-09-28T07:46:46;98318.84;;;13.69;57.04
62800;BME280;48842;51.046;13.796;2022-09-28T07:49:12;98331.94;;;13.70;57.20
62800;BME280;48842;51.046;13.796;2022-09-28T07:51:39;98327.59;;;13.69;56.91
62800;BME280;48842;51.046;13.796;2022-09-28T07:54:07;98330.16;;;13.71;57.10
62800;BME280;48842;51.046;13.796;2022-09-28T07:56:32;98330.16;;;13.71;57.19
62800;BME280;48842;51.046;13.796;2022-09-28T07:58:58;98339.78;;;13.72;57.11
62800;BME280;48842;51.046;13.796;2022-09-28T08:01:24;98336.16;;;13.74;57.05
62800;BME280;48842;51.046;13.796;2022-09-28T08:03:49;98332.59;;;13.75;57.40
62800;BME280;48842;51.046;13.796;2022-09-28T08:06:16;98335.13;;;13.78;57.54
62800;BME280;48842;51.046;13.796;2022-09-28T08:08:42;98339.44;;;13.79;57.61
62800;BME280;48842;51.046;13.796;2022-09-28T08:11:15;98353.41;;;13.82;57.65
62800;BME280;48842;51.046;13.796;2022-09-28T08:13:42;98345.38;;;13.85;57.79
62800;BME280;48842;51.046;13.796;2022-09-28T08:16:08;98352.38;;;13.86;58.17
62800;BME280;48842;51.046;13.796;2022-09-28T08:18:34;98345.25;;;13.88;58.44
62800;BME280;48842;51.046;13.796;2022-09-28T08:21:01;98348.72;;;13.88;58.27
62800;BME280;48842;51.046;13.796;2022-09-28T08:23:45;98352.25;;;13.89;58.24
62800;BME280;48842;51.046;13.796;2022-09-28T08:26:10;98354.00;;;13.88;58.51
62800;BME280;48842;51.046;13.796;2022-09-28T08:28:35;98357.44;;;13.90;58.55
62800;BME280;48842;51.046;13.796;2022-09-28T08:31:01;98354.88;;;13.89;58.72
62800;BME280;48842;51.046;13.796;2022-09-28T08:33:26;98353.16;;;13.88;59.07
62800;BME280;48842;51.046;13.796;2022-09-28T08:35:59;98358.41;;;13.88;59.22
62800;BME280;48842;51.046;13.796;2022-09-28T08:38:25;98360.25;;;13.86;58.90
62800;BME280;48842;51.046;13.796;2022-09-28T08:46:23;98379.94;;;13.75;58.15
62800;BME280;48842;51.046;13.796;2022-09-28T08:48:53;98368.66;;;13.73;58.13
62800;BME280;48842;51.046;13.796;2022-09-28T08:51:43;98369.81;;;13.66;57.03
62800;BME280;48842;51.046;13.796;2022-09-28T08:54:23;98369.16;;;13.61;57.60
62800;BME280;48842;51.046;13.796;2022-09-28T08:56:53;98371.72;;;13.63;58.17
62800;BME280;48842;51.046;13.796;2022-09-28T08:59:25;98365.53;;;13.64;58.29
62800;BME280;48842;51.046;13.796;2022-09-28T09:01:55;98369.09;;;13.63;58.39
62800;BME280;48842;51.046;13.796;2022-09-28T09:04:22;98376.13;;;13.62;58.89
62800;BME280;48842;51.046;13.796;2022-09-28T09:07:04;98375.28;;;13.61;59.11
62800;BME280;48842;51.046;13.796;2022-09-28T09:10:17;98385.78;;;13.61;59.70
62800;BME280;48842;51.046;13.796;2022-09-28T09:16:23;98378.16;;;13.55;59.45
62800;BME280;48842;51.046;13.796;2022-09-28T09:19:09;98379.00;;;13.56;59.54
62800;BME280;48842;51.046;13.796;2022-09-28T09:22:01;98372.84;;;13.57;59.62
62800;BME280;48842;51.046;13.796;2022-09-28T09:24:39;98364.94;;;13.57;60.04
62800;BME280;48842;51.046;13.796;2022-09-28T09:27:24;98363.09;;;13.59;60.36
62800;BME280;48842;51.046;13.796;2022-09-28T09:30:08;98356.91;;;13.60;60.14
62800;BME280;48842;51.046;13.796;2022-09-28T09:32:57;98355.06;;;13.62;60.74
62800;BME280;48842;51.046;13.796;2022-09-28T09:38:16;98361.16;;;13.64;60.96
62800;BME280;48842;51.046;13.796;2022-09-28T09:43:48;98351.59;;;13.61;61.32
62800;BME280;48842;51.046;13.796;2022-09-28T09:46:36;98346.34;;;13.61;61.33
62800;BME280;48842;51.046;13.796;2022-09-28T09:51:59;98347.19;;;13.62;61.30
62800;BME280;48842;51.046;13.796;2022-09-28T09:54:34;98346.34;;;13.61;61.19
62800;BME280;48842;51.046;13.796;2022-09-28T09:57:05;98350.75;;;13.61;61.12
62800;BME280;48842;51.046;13.796;2022-09-28T09:59:38;98344.69;;;13.59;61.28
62800;BME280;48842;51.046;13.796;2022-09-28T10:02:26;98336.91;;;13.56;61.52
62800;BME280;48842;51.046;13.796;2022-09-28T10:04:59;98336.91;;;13.56;61.36
62800;BME280;48842;51.046;13.796;2022-09-28T10:07:54;98342.31;;;13.53;61.60
62800;BME280;48842;51.046;13.796;2022-09-28T10:10:29;98344.22;;;13.49;61.51
62800;BME280;48842;51.046;13.796;2022-09-28T10:12:55;98335.50;;;13.47;61.56
62800;BME280;48842;51.046;13.796;2022-09-28T10:15:25;98325.91;;;13.46;61.29
62800;BME280;48842;51.046;13.796;2022-09-28T10:17:53;98320.59;;;13.48;61.40
62800;BME280;48842;51.046;13.796;2022-09-28T10:20:19;98323.97;;;13.51;61.44
62800;BME280;48842;51.046;13.796;2022-09-28T10:22:45;98321.19;;;13.54;61.68
62800;BME280;48842;51.046;13.796;2022-09-28T10:25:11;98316.63;;;13.59;61.65
62800;BME280;48842;51.046;13.796;2022-09-28T10:27:41;98313.91;;;13.61;61.59
62800;BME280;48842;51.046;13.796;2022-09-28T10:32:39;98310.22;;;13.65;61.78
62800;BME280;48842;51.046;13.796;2022-09-28T10:35:20;98304.06;;;13.66;61.75
62800;BME280;48842;51.046;13.796;2022-09-28T10:37:56;98301.34;;;13.68;61.78
62800;BME280;48842;51.046;13.796;2022-09-28T10:40:36;98301.28;;;13.69;61.47
62800;BME280;48842;51.046;13.796;2022-09-28T10:45:50;98304.72;;;13.71;61.39
62800;BME280;48842;51.046;13.796;2022-09-28T10:48:24;98303.00;;;13.70;61.14
62800;BME280;48842;51.046;13.796;2022-09-28T10:50:59;98306.53;;;13.69;61.04
62800;BME280;48842;51.046;13.796;2022-09-28T10:53:26;98294.13;;;13.73;61.35
62800;BME280;48842;51.046;13.796;2022-09-28T10:55:58;98287.09;;;13.73;61.53
62800;BME280;48842;51.046;13.796;2022-09-28T10:58:37;98287.09;;;13.73;61.69
62800;BME280;48842;51.046;13.796;2022-09-28T11:01:15;98286.25;;;13.73;61.80
62800;BME280;48842;51.046;13.796;2022-09-28T11:03:57;98280.03;;;13.74;62.17
62800;BME280;48842;51.046;13.796;2022-09-28T11:06:29;98289.59;;;13.76;62.10
62800;BME280;48842;51.046;13.796;2022-09-28T11:09:00;98288.66;;;13.77;62.20
62800;BME280;48842;51.046;13.796;2022-09-28T11:11:26;98289.44;;;13.79;62.24
62800;BME280;48842;51.046;13.796;2022-09-28T11:13:56;98297.22;;;13.83;62.19
62800;BME280;48842;51.046;13.796;2022-09-28T11:16:27;98284.84;;;13.85;62.20
62800;BME280;48842;51.046;13.796;2022-09-28T11:18:55;98283.97;;;13.84;62.19
62800;BME280;48842;51.046;13.796;2022-09-28T11:21:23;98290.97;;;13.85;62.50
62800;BME280;48842;51.046;13.796;2022-09-28T11:24:16;98300.66;;;13.85;62.48
62800;BME280;48842;51.046;13.796;2022-09-28T11:26:44;98316.56;;;13.82;62.44
62800;BME280;48842;51.046;13.796;2022-09-28T11:29:42;98308.13;;;13.73;63.17
62800;BME280;48842;51.046;13.796;2022-09-28T11:32:10;98303.84;;;13.71;62.82
62800;BME280;48842;51.046;13.796;2022-09-28T11:34:41;98303.78;;;13.72;63.03
62800;BME280;48842;51.046;13.796;2022-09-28T11:42:42;98311.38;;;14.01;64.94
62800;BME280;48842;51.046;13.796;2022-09-28T11:45:31;98310.69;;;14.16;65.39
62800;BME280;48842;51.046;13.796;2022-09-28T11:48:03;98299.56;;;14.30;64.87
62800;BME280;48842;51.046;13.796;2022-09-28T11:53:57;98305.00;;;14.46;63.33
62800;BME280;48842;51.046;13.796;2022-09-28T11:56:37;98306.59;;;14.50;63.38
62800;BME280;48842;51.046;13.796;2022-09-28T11:59:14;98312.25;;;14.60;63.58
62800;BME280;48842;51.046;13.796;2022-09-28T12:01:42;98306.69;;;14.68;63.00
62800;BME280;48842;51.046;13.796;2022-09-28T12:04:16;98318.38;;;14.62;61.65
62800;BME280;48842;51.046;13.796;2022-09-28T12:06:52;98316.63;;;14.61;61.53
62800;BME280;48842;51.046;13.796;2022-09-28T12:09:44;98316.16;;;14.51;60.87
62800;BME280;48842;51.046;13.796;2022-09-28T12:12:34;98320.72;;;14.47;60.63
62800;BME280;48842;51.046;13.796;2022-09-28T12:15:18;98322.84;;;14.39;59.77
62800;BME280;48842;51.046;13.796;2022-09-28T12:17:49;98318.91;;;14.29;60.28
62800;BME280;48842;51.046;13.796;2022-09-28T12:20:23;98324.53;;;14.01;60.03
62800;BME280;48842;51.046;13.796;2022-09-28T12:23:03;98327.31;;;13.98;61.14
62800;BME280;48842;51.046;13.796;2022-09-28T12:25:38;98325.50;;;13.77;60.42
62800;BME280;48842;51.046;13.796;2022-09-28T12:28:10;98324.53;;;13.80;60.35
62800;BME280;48842;51.046;13.796;2022-09-28T12:30:38;98338.06;;;13.71;60.54
62800;BME280;48842;51.046;13.796;2022-09-28T12:33:13;98338.13;;;13.69;60.98
62800;BME280;48842;51.046;13.796;2022-09-28T12:36:04;98342.53;;;13.69;60.74
62800;BME280;48842;51.046;13.796;2022-09-28T12:41:26;98351.41;;;13.66;59.43
62800;BME280;48842;51.046;13.796;2022-09-28T12:49:55;98358.13;;;13.73;60.65
62800;BME280;48842;51.046;13.796;2022-09-28T12:57:55;98361.19;;;14.05;60.85
62800;BME280;48842;51.046;13.796;2022-09-28T13:00:25;98364.66;;;14.06;60.28
62800;BME280;48842;51.046;13.796;2022-09-28T13:09:17;98377.47;;;13.93;59.25
62800;BME280;48842;51.046;13.796;2022-09-28T13:11:51;98377.38;;;13.96;59.34
62800;BME280;48842;51.046;13.796;2022-09-28T13:23:17;98397.94;;;13.86;60.23
62800;BME280;48842;51.046;13.796;2022-09-28T13:26:17;98399.69;;;13.87;61.01
62800;BME280;48842;51.046;13.796;2022-09-28T13:28:44;98405.66;;;13.91;59.71
62800;BME280;48842;51.046;13.796;2022-09-28T13:31:11;98407.06;;;14.00;59.96
62800;BME280;48842;51.046;13.796;2022-09-28T13:33:43;98404.28;;;14.03;59.80
62800;BME280;48842;51.046;13.796;2022-09-28T13:38:51;98406.97;;;14.01;58.28
62800;BME280;48842;51.046;13.796;2022-09-28T13:41:22;98402.69;;;13.99;58.23
62800;BME280;48842;51.046;13.796;2022-09-28T13:46:45;98416.72;;;13.99;57.50
62800;BME280;48842;51.046;13.796;2022-09-28T13:52:27;98415.34;;;13.90;57.91
62800;BME280;48842;51.046;13.796;2022-09-28T13:55:10;98419.84;;;13.87;57.59
62800;BME280;48842;51.046;13.796;2022-09-28T13:57:51;98424.47;;;13.82;57.66
62800;BME280;48842;51.046;13.796;2022-09-28T14:00:28;98430.69;;;13.79;58.17
62800;BME280;48842;51.046;13.796;2022-09-28T14:08:39;98441.41;;;13.74;58.52
62800;BME280;48842;51.046;13.796;2022-09-28T14:14:01;98451.94;;;13.74;58.86
62800;BME280;48842;51.046;13.796;2022-09-28T14:16:30;98447.84;;;13.67;58.85
62800;BME280;48842;51.046;13.796;2022-09-28T14:19:00;98457.53;;;13.65;58.78
62800;BME280;48842;51.046;13.796;2022-09-28T14:24:35;98471.31;;;13.72;59.17
62800;BME280;48842;51.046;13.796;2022-09-28T14:32:37;98476.47;;;13.75;58.90
62800;BME280;48842;51.046;13.796;2022-09-28T14:35:05;98475.63;;;13.74;58.71
62800;BME280;48842;51.046;13.796;2022-09-28T14:37:36;98493.16;;;13.74;58.90
62800;BME280;48842;51.046;13.796;2022-09-28T14:40:26;98495.06;;;13.70;59.32
62800;BME280;48842;51.046;13.796;2022-09-28T14:43:27;98493.59;;;13.63;59.63
62800;BME280;48842;51.046;13.796;2022-09-28T14:48:54;98491.66;;;13.68;60.30
62800;BME280;48842;51.046;13.796;2022-09-28T14:53:52;98494.28;;;13.68;60.26
62800;BME280;48842;51.046;13.796;2022-09-28T14:56:18;98494.88;;;13.75;60.17